G.m. Mcallister — WDH9744 — position and weather

sailwx.info

Track history (hours):
 
Tides and Currents Weather Stations Pressure Air Temp Water Temp Dewpoint Dewpoint Depression Visibility Wind Speed Wind Dir Waves Ship Positions

G.m. Mcallister

Owner: McAllister Towing & Transportation Company Inc., Staten Island, NY. More information available from US FCC via Universal Licensing System and Coast Guard Vessel Documentation Center.

Last reported at 2018-Feb-23 08:21 UTC. Time now 2018-Feb-23 08:41 UTC.
Position N 36°56' W 076°20'.

Length 29 m; draft 4.5 m.

Type: Tug. MMSI: 367661170.

Date/timePositionNaut miles runAvg speedWind from/ knotsBaromVisibWave heightAir tempDewpointWater temp
2018-Feb-23 08:21N 36°56' W 076°20'3 9.3
2018-Feb-23 08:00N 36°53' W 076°20'3 6.1
2018-Feb-23 07:30N 36°50' W 076°17'0 0.0
2018-Feb-23 07:00N 36°50' W 076°17'0 0.0
2018-Feb-23 06:30N 36°50' W 076°17'0 0.0
2018-Feb-23 06:00N 36°50' W 076°17'0 0.0
2018-Feb-23 05:30N 36°50' W 076°17'0 0.0
2018-Feb-23 05:00N 36°50' W 076°17'0 0.0
2018-Feb-23 04:30N 36°50' W 076°17'0 0.0
2018-Feb-23 04:00N 36°50' W 076°17'0 0.0
2018-Feb-23 03:30N 36°50' W 076°17'0 0.0
2018-Feb-23 03:00N 36°50' W 076°17'0 0.0
2018-Feb-23 02:30N 36°50' W 076°17'0 0.0
2018-Feb-23 02:00N 36°50' W 076°17'0 0.0
2018-Feb-23 01:30N 36°50' W 076°17'0 0.0
2018-Feb-23 01:00N 36°50' W 076°17'0 0.0
2018-Feb-23 00:30N 36°50' W 076°17'0 0.0
2018-Feb-23 00:00N 36°50' W 076°17'0 0.0
2018-Feb-22 23:29N 36°50' W 076°17'0 0.0
2018-Feb-22 23:00N 36°50' W 076°17'0 0.0
2018-Feb-22 22:30N 36°50' W 076°17'0 0.0
2018-Feb-22 22:00N 36°50' W 076°17'0 0.0
2018-Feb-22 21:30N 36°50' W 076°17'0 0.0
2018-Feb-22 21:00N 36°50' W 076°17'0 0.0
2018-Feb-22 20:30N 36°50' W 076°17'0 0.0
2018-Feb-22 20:00N 36°50' W 076°17'0 0.0
2018-Feb-22 19:30N 36°50' W 076°17'0 0.0
2018-Feb-22 19:00N 36°50' W 076°17'0 0.0
2018-Feb-22 18:30N 36°50' W 076°17'3 5.5
2018-Feb-22 18:00N 36°52' W 076°20'0 0.9
2018-Feb-22 17:30N 36°53' W 076°20'0 0.1
2018-Feb-22 16:59N 36°53' W 076°20'0 0.1
2018-Feb-22 16:30N 36°53' W 076°20'0 0.4
2018-Feb-22 15:58N 36°53' W 076°20'1 1.1
2018-Feb-22 15:29N 36°53' W 076°20'7 3.8
2018-Feb-22 13:46N 36°58' W 076°26'0 0.0
2018-Feb-22 00:19N 36°58' W 076°25'0 0.0
2018-Feb-21 23:56N 36°58' W 076°25'0 1.0
2018-Feb-21 23:29N 36°57' W 076°25'0 0.8
2018-Feb-21 22:57N 36°58' W 076°25'0 0.0
2018-Feb-21 22:27N 36°58' W 076°25'0 0.0
2018-Feb-21 21:57N 36°58' W 076°25'1 0.1
2018-Feb-21 14:46N 36°58' W 076°26'0 0.0
2018-Feb-21 14:30N 36°58' W 076°26'0 0.1
2018-Feb-21 11:06N 36°58' W 076°26'0 0.0
2018-Feb-21 10:56N 36°58' W 076°26'0 0.1
2018-Feb-21 10:30N 36°58' W 076°26'0 0.3
2018-Feb-21 09:56N 36°58' W 076°26'1 1.3
2018-Feb-21 09:25N 36°57' W 076°25'1 2.4
2018-Feb-21 09:00N 36°57' W 076°24'2 0.1
2018-Feb-20 21:10N 36°58' W 076°26'1 3.0
2018-Feb-20 20:57N 36°57' W 076°25'2 4.4
2018-Feb-20 20:27N 36°57' W 076°22'3 5.0
2018-Feb-20 19:57N 36°56' W 076°20'0 0.0
2018-Feb-20 19:26N 36°56' W 076°20'0 0.0
2018-Feb-20 16:44N 36°56' W 076°20'0 0.0
2018-Feb-20 16:29N 36°56' W 076°20'0 0.0
2018-Feb-20 15:55N 36°56' W 076°20'0 0.0
2018-Feb-20 15:29N 36°56' W 076°20'0 0.0
2018-Feb-20 14:23N 36°56' W 076°20'0 0.0
2018-Feb-20 13:57N 36°56' W 076°20'0 0.0
2018-Feb-20 13:27N 36°56' W 076°20'0 0.0
2018-Feb-20 12:57N 36°56' W 076°20'0 0.0
2018-Feb-20 12:21N 36°56' W 076°20'0 0.6
2018-Feb-20 11:43N 36°55' W 076°20'0 0.0
2018-Feb-20 11:30N 36°55' W 076°20'1 1.1
2018-Feb-20 10:52N 36°56' W 076°20'1 2.9
2018-Feb-20 10:30N 36°57' W 076°20'1 2.7
2018-Feb-20 10:00N 36°56' W 076°20'0 0.0
2018-Feb-20 09:21N 36°56' W 076°20'0 0.0
2018-Feb-20 08:57N 36°56' W 076°20'0 0.0
2018-Feb-20 08:30N 36°56' W 076°20'0 0.0
2018-Feb-20 07:58N 36°56' W 076°20'0 0.0
2018-Feb-20 07:28N 36°56' W 076°20'0 0.0
2018-Feb-20 06:57N 36°56' W 076°20'0 0.0
2018-Feb-20 06:27N 36°56' W 076°20'0 0.0
2018-Feb-20 05:57N 36°56' W 076°20'0 0.0
2018-Feb-20 05:26N 36°56' W 076°20'0 0.0
2018-Feb-20 05:00N 36°56' W 076°20'0 0.0
2018-Feb-20 04:30N 36°56' W 076°20'0 0.0
2018-Feb-20 03:59N 36°56' W 076°20'0 0.0
2018-Feb-20 03:29N 36°56' W 076°20'0 0.0
2018-Feb-20 02:58N 36°56' W 076°20'0 0.0
2018-Feb-20 02:28N 36°56' W 076°20'1 2.6
2018-Feb-20 01:57N 36°57' W 076°20'4 7.5
2018-Feb-20 01:25N 36°58' W 076°25'0 0.0
2018-Feb-20 00:59N 36°58' W 076°25'1 2.6
2018-Feb-20 00:29N 36°57' W 076°24'0 0.6
2018-Feb-19 23:58N 36°57' W 076°23'2 2.3
2018-Feb-19 23:17N 36°58' W 076°25'0 0.3
2018-Feb-19 22:55N 36°58' W 076°25'0 0.1
2018-Feb-19 22:30N 36°58' W 076°25'1 1.8
2018-Feb-19 22:00N 36°57' W 076°25'4 6.3
2018-Feb-19 21:27N 36°57' W 076°20'1 1.5
2018-Feb-19 20:59N 36°56' W 076°20'0 0.0
2018-Feb-19 20:22N 36°56' W 076°20'0 0.0
2018-Feb-19 20:01N 36°56' W 076°20'0 0.0
2018-Feb-19 19:23N 36°56' W 076°20'0 0.0
2018-Feb-19 18:58N 36°56' W 076°20'0 0.0
2018-Feb-19 18:29N 36°56' W 076°20'0 0.0
2018-Feb-19 17:58N 36°56' W 076°20'0 0.0
2018-Feb-19 17:28N 36°56' W 076°20'0 0.0
2018-Feb-19 16:54N 36°56' W 076°20'0 0.0
2018-Feb-19 16:29N 36°56' W 076°20'1 2.9
2018-Feb-19 16:01N 36°55' W 076°20'4 8.5
2018-Feb-19 15:31N 36°51' W 076°18'2 3.7
2018-Feb-19 15:00N 36°49' W 076°17'0 0.0
2018-Feb-19 14:30N 36°49' W 076°17'0 0.7
2018-Feb-19 14:01N 36°49' W 076°17'2 4.7
2018-Feb-19 13:30N 36°51' W 076°19'3 5.9
2018-Feb-19 13:00N 36°54' W 076°20'2 2.7
2018-Feb-19 12:22N 36°56' W 076°20'0 0.0
2018-Feb-19 11:56N 36°56' W 076°20'0 0.0
2018-Feb-19 11:26N 36°56' W 076°20'0 0.0
2018-Feb-19 10:51N 36°56' W 076°20'0 0.0
2018-Feb-19 10:30N 36°56' W 076°20'0 0.0
2018-Feb-19 09:59N 36°56' W 076°20'0 0.0
2018-Feb-19 09:28N 36°56' W 076°20'0 0.0
2018-Feb-19 08:52N 36°56' W 076°20'0 0.0
2018-Feb-19 08:25N 36°56' W 076°20'0 0.0
2018-Feb-19 08:00N 36°56' W 076°20'0 0.0
2018-Feb-19 07:25N 36°56' W 076°20'0 0.0
2018-Feb-19 06:58N 36°56' W 076°20'0 0.0
2018-Feb-19 06:16N 36°56' W 076°20'0 0.0
2018-Feb-19 06:00N 36°56' W 076°20'0 0.0
2018-Feb-19 05:27N 36°56' W 076°20'0 0.5
2018-Feb-19 05:00N 36°56' W 076°20'0 0.2
2018-Feb-19 04:30N 36°56' W 076°20'0 0.0
2018-Feb-19 04:00N 36°56' W 076°20'0 0.5
2018-Feb-19 03:28N 36°56' W 076°20'0 0.0
2018-Feb-19 02:58N 36°56' W 076°20'0 0.0
2018-Feb-19 02:25N 36°56' W 076°20'0 0.0
2018-Feb-19 02:00N 36°56' W 076°20'0 0.0
2018-Feb-19 01:29N 36°56' W 076°20'0 0.1
2018-Feb-19 00:59N 36°56' W 076°20'0 0.8
2018-Feb-19 00:28N 36°56' W 076°20'0 0.7
2018-Feb-18 23:57N 36°56' W 076°20'0 0.0
2018-Feb-18 23:26N 36°56' W 076°20'0 0.0
2018-Feb-18 22:58N 36°56' W 076°20'0 0.8
2018-Feb-18 22:26N 36°56' W 076°20'1 1.9
2018-Feb-18 22:00N 36°56' W 076°20'0 0.6
2018-Feb-18 21:19N 36°56' W 076°20'0 0.0
2018-Feb-18 20:59N 36°56' W 076°20'0 0.0
2018-Feb-18 20:27N 36°56' W 076°20'0 0.0
2018-Feb-18 19:58N 36°56' W 076°20'0 0.0
2018-Feb-18 19:27N 36°56' W 076°20'0 0.0
2018-Feb-18 18:59N 36°56' W 076°20'0 0.0
2018-Feb-18 18:27N 36°56' W 076°20'0 0.0
2018-Feb-18 17:46N 36°56' W 076°20'0 0.0
2018-Feb-18 17:25N 36°56' W 076°20'0 0.0
2018-Feb-18 17:00N 36°56' W 076°20'0 0.0
2018-Feb-18 16:26N 36°56' W 076°20'0 0.0
2018-Feb-18 15:55N 36°56' W 076°20'0 0.0
2018-Feb-18 15:28N 36°56' W 076°20'0 0.0
2018-Feb-18 14:56N 36°56' W 076°20'0 0.0
2018-Feb-18 14:29N 36°56' W 076°20'0 0.0
2018-Feb-18 13:57N 36°56' W 076°20'0 0.0
2018-Feb-18 13:30N 36°56' W 076°20'0 0.0
2018-Feb-18 12:57N 36°56' W 076°20'3 5.8
2018-Feb-18 12:27N 36°53' W 076°20'0 1.0
2018-Feb-18 11:58N 36°53' W 076°21'0 0.5
2018-Feb-18 11:27N 36°53' W 076°21'0 0.0
2018-Feb-18 10:58N 36°53' W 076°21'0 0.3
2018-Feb-18 10:30N 36°53' W 076°21'3 4.8
2018-Feb-18 09:59N 36°55' W 076°20'1 1.1
2018-Feb-18 09:23N 36°56' W 076°20'0 0.0
2018-Feb-18 08:57N 36°56' W 076°20'0 0.0
2018-Feb-18 08:28N 36°56' W 076°20'2 3.7
2018-Feb-18 07:56N 36°57' W 076°22'3 0.4
2018-Feb-17 23:52N 36°58' W 076°26'1 1.5
2018-Feb-17 23:28N 36°58' W 076°25'0 0.7
2018-Feb-17 23:00N 36°58' W 076°25'0 0.7
2018-Feb-17 22:28N 36°57' W 076°25'1 0.3
2018-Feb-17 20:23N 36°58' W 076°26'0 0.8
2018-Feb-17 19:55N 36°58' W 076°25'2 3.6
2018-Feb-17 19:29N 36°57' W 076°24'3 6.1
2018-Feb-17 18:58N 36°56' W 076°20'0 0.0
2018-Feb-17 18:28N 36°56' W 076°20'0 0.0
2018-Feb-17 17:57N 36°56' W 076°20'0 0.0
2018-Feb-17 17:26N 36°56' W 076°20'0 0.0
2018-Feb-17 16:56N 36°56' W 076°20'0 0.0
2018-Feb-17 16:31N 36°56' W 076°20'0 0.0
2018-Feb-17 16:00N 36°56' W 076°20'0 0.0
2018-Feb-17 15:30N 36°56' W 076°20'0 0.0
2018-Feb-17 14:58N 36°56' W 076°20'0 0.0
2018-Feb-17 14:28N 36°56' W 076°20'0 0.0
2018-Feb-17 01:13N 36°56' W 076°20'0 0.0
2018-Feb-17 00:57N 36°56' W 076°20'0 0.0
2018-Feb-17 00:26N 36°56' W 076°20'0 0.0
2018-Feb-16 23:55N 36°56' W 076°20'1 2.6
2018-Feb-16 23:30N 36°55' W 076°20'1 1.0
2018-Feb-16 22:58N 36°55' W 076°20'2 4.2
2018-Feb-16 22:30N 36°57' W 076°20'1 2.2
2018-Feb-16 21:59N 36°56' W 076°20'0 0.0
2018-Feb-16 21:29N 36°56' W 076°20'5 3.7
2018-Feb-16 20:03N 36°58' W 076°26'0 0.0
2018-Feb-16 19:38N 36°58' W 076°26'0 0.0
2018-Feb-16 19:20N 36°58' W 076°26'0 0.0
2018-Feb-16 18:40N 36°58' W 076°26'0 0.0
2018-Feb-16 18:25N 36°58' W 076°26'0 0.0
2018-Feb-16 17:50N 36°58' W 076°26'0 0.0
2018-Feb-16 17:25N 36°58' W 076°26'0 0.0
2018-Feb-16 16:57N 36°58' W 076°26'0 0.0
2018-Feb-16 15:03N 36°58' W 076°26'0 0.0
2018-Feb-16 14:56N 36°58' W 076°26'0 0.0
2018-Feb-16 14:27N 36°58' W 076°26'0 0.0
2018-Feb-16 13:16N 36°58' W 076°26'0 0.0
2018-Feb-16 12:56N 36°58' W 076°26'1 0.1
2018-Feb-16 08:49N 36°58' W 076°25'1 2.7
2018-Feb-16 08:30N 36°57' W 076°25'1 2.0
2018-Feb-16 07:59N 36°57' W 076°23'2 2.5
2018-Feb-16 07:14N 36°58' W 076°26'1 0.1
2018-Feb-16 00:20N 36°58' W 076°26'1 0.6
2018-Feb-15 22:56N 36°58' W 076°25'0 0.1
2018-Feb-15 22:30N 36°58' W 076°25'1 0.3
2018-Feb-15 19:38N 36°58' W 076°26'1 4.5
2018-Feb-15 19:23N 36°57' W 076°25'1 0.1
2018-Feb-15 07:53N 36°58' W 076°26'0 0.3
2018-Feb-15 07:19N 36°58' W 076°26'0 0.1
2018-Feb-15 06:59N 36°58' W 076°26'0 0.1
2018-Feb-15 04:10N 36°58' W 076°26'0 0.0
2018-Feb-15 01:44N 36°58' W 076°26'0 0.0
2018-Feb-15 01:14N 36°58' W 076°26'0 0.0
2018-Feb-15 00:54N 36°58' W 076°26'0 0.0
2018-Feb-15 00:27N 36°58' W 076°26'0 0.0
2018-Feb-14 23:59N 36°58' W 076°26'0 0.0
2018-Feb-14 21:42N 36°58' W 076°26'0 0.0
2018-Feb-14 17:08N 36°58' W 076°26'0 0.0
2018-Feb-14 17:00N 36°58' W 076°26'0 0.0
2018-Feb-14 14:11N 36°58' W 076°26'0 0.0
2018-Feb-14 13:49N 36°58' W 076°26'0 0.0
2018-Feb-14 13:27N 36°58' W 076°26'0 0.0
2018-Feb-13 23:11N 36°58' W 076°26'2 2.1
2018-Feb-13 22:12N 36°57' W 076°23'1 3.0
2018-Feb-13 21:56N 36°57' W 076°24'1 2.1
2018-Feb-13 21:28N 36°58' W 076°25'1 1.1
2018-Feb-13 20:59N 36°58' W 076°26'0 0.0
2018-Feb-13 20:06N 36°58' W 076°26'0 0.1
2018-Feb-13 19:53N 36°58' W 076°26'0 0.0
2018-Feb-13 19:16N 36°58' W 076°26'0 0.0
2018-Feb-13 18:50N 36°58' W 076°26'0 0.0
2018-Feb-13 18:28N 36°58' W 076°26'0 0.6
2018-Feb-13 17:58N 36°58' W 076°26'0 0.5
2018-Feb-13 17:26N 36°58' W 076°26'0 0.1
2018-Feb-13 16:55N 36°58' W 076°26'0 0.0
2018-Feb-13 16:19N 36°58' W 076°26'0 0.0
2018-Feb-13 15:52N 36°58' W 076°26'0 0.0
2018-Feb-13 15:20N 36°58' W 076°26'0 0.0
2018-Feb-13 14:58N 36°58' W 076°26'0 0.0
2018-Feb-13 14:26N 36°58' W 076°26'0 0.0
2018-Feb-13 13:48N 36°58' W 076°26'0 0.0
2018-Feb-13 13:26N 36°58' W 076°26'0 0.0
2018-Feb-13 12:55N 36°58' W 076°26'0 0.0
2018-Feb-13 12:06N 36°58' W 076°26'0 0.0
2018-Feb-13 11:48N 36°58' W 076°26'0 0.4
2018-Feb-13 11:19N 36°58' W 076°26'0 0.0
2018-Feb-13 10:58N 36°58' W 076°26'0 0.0
2018-Feb-13 10:24N 36°58' W 076°26'0 0.4
2018-Feb-13 09:53N 36°58' W 076°26'  
Track history (hours):
 
Tides and Currents Weather Stations Pressure Air Temp Water Temp Dewpoint Dewpoint Depression Visibility Wind Speed Wind Dir Waves Ship Positions

G.m. Mcallister

Owner: McAllister Towing & Transportation Company Inc., Staten Island, NY. More information available from US FCC via Universal Licensing System and Coast Guard Vessel Documentation Center.

Last reported at 2018-Feb-23 08:21 UTC. Time now 2018-Feb-23 08:41 UTC.
Position N 36°56' W 076°20'.

Length 29 m; draft 4.5 m.

Type: Tug. MMSI: 367661170.

Date/timePositionNaut miles runAvg speedWind from/ knotsBaromVisibWave heightAir tempDewpointWater temp
2018-Feb-23 08:21N 36°56' W 076°20'3 9.3
2018-Feb-23 08:00N 36°53' W 076°20'3 6.1
2018-Feb-23 07:30N 36°50' W 076°17'0 0.0
2018-Feb-23 07:00N 36°50' W 076°17'0 0.0
2018-Feb-23 06:30N 36°50' W 076°17'0 0.0
2018-Feb-23 06:00N 36°50' W 076°17'0 0.0
2018-Feb-23 05:30N 36°50' W 076°17'0 0.0
2018-Feb-23 05:00N 36°50' W 076°17'0 0.0
2018-Feb-23 04:30N 36°50' W 076°17'0 0.0
2018-Feb-23 04:00N 36°50' W 076°17'0 0.0
2018-Feb-23 03:30N 36°50' W 076°17'0 0.0
2018-Feb-23 03:00N 36°50' W 076°17'0 0.0
2018-Feb-23 02:30N 36°50' W 076°17'0 0.0
2018-Feb-23 02:00N 36°50' W 076°17'0 0.0
2018-Feb-23 01:30N 36°50' W 076°17'0 0.0
2018-Feb-23 01:00N 36°50' W 076°17'0 0.0
2018-Feb-23 00:30N 36°50' W 076°17'0 0.0
2018-Feb-23 00:00N 36°50' W 076°17'0 0.0
2018-Feb-22 23:29N 36°50' W 076°17'0 0.0
2018-Feb-22 23:00N 36°50' W 076°17'0 0.0
2018-Feb-22 22:30N 36°50' W 076°17'0 0.0
2018-Feb-22 22:00N 36°50' W 076°17'0 0.0
2018-Feb-22 21:30N 36°50' W 076°17'0 0.0
2018-Feb-22 21:00N 36°50' W 076°17'0 0.0
2018-Feb-22 20:30N 36°50' W 076°17'0 0.0
2018-Feb-22 20:00N 36°50' W 076°17'0 0.0
2018-Feb-22 19:30N 36°50' W 076°17'0 0.0
2018-Feb-22 19:00N 36°50' W 076°17'0 0.0
2018-Feb-22 18:30N 36°50' W 076°17'3 5.5
2018-Feb-22 18:00N 36°52' W 076°20'0 0.9
2018-Feb-22 17:30N 36°53' W 076°20'0 0.1
2018-Feb-22 16:59N 36°53' W 076°20'0 0.1
2018-Feb-22 16:30N 36°53' W 076°20'0 0.4
2018-Feb-22 15:58N 36°53' W 076°20'1 1.1
2018-Feb-22 15:29N 36°53' W 076°20'7 3.8
2018-Feb-22 13:46N 36°58' W 076°26'0 0.0
2018-Feb-22 00:19N 36°58' W 076°25'0 0.0
2018-Feb-21 23:56N 36°58' W 076°25'0 1.0
2018-Feb-21 23:29N 36°57' W 076°25'0 0.8
2018-Feb-21 22:57N 36°58' W 076°25'0 0.0
2018-Feb-21 22:27N 36°58' W 076°25'0 0.0
2018-Feb-21 21:57N 36°58' W 076°25'1 0.1
2018-Feb-21 14:46N 36°58' W 076°26'0 0.0
2018-Feb-21 14:30N 36°58' W 076°26'0 0.1
2018-Feb-21 11:06N 36°58' W 076°26'0 0.0
2018-Feb-21 10:56N 36°58' W 076°26'0 0.1
2018-Feb-21 10:30N 36°58' W 076°26'0 0.3
2018-Feb-21 09:56N 36°58' W 076°26'1 1.3
2018-Feb-21 09:25N 36°57' W 076°25'1 2.4
2018-Feb-21 09:00N 36°57' W 076°24'2 0.1
2018-Feb-20 21:10N 36°58' W 076°26'1 3.0
2018-Feb-20 20:57N 36°57' W 076°25'2 4.4
2018-Feb-20 20:27N 36°57' W 076°22'3 5.0
2018-Feb-20 19:57N 36°56' W 076°20'0 0.0
2018-Feb-20 19:26N 36°56' W 076°20'0 0.0
2018-Feb-20 16:44N 36°56' W 076°20'0 0.0
2018-Feb-20 16:29N 36°56' W 076°20'0 0.0
2018-Feb-20 15:55N 36°56' W 076°20'0 0.0
2018-Feb-20 15:29N 36°56' W 076°20'0 0.0
2018-Feb-20 14:23N 36°56' W 076°20'0 0.0
2018-Feb-20 13:57N 36°56' W 076°20'0 0.0
2018-Feb-20 13:27N 36°56' W 076°20'0 0.0
2018-Feb-20 12:57N 36°56' W 076°20'0 0.0
2018-Feb-20 12:21N 36°56' W 076°20'0 0.6
2018-Feb-20 11:43N 36°55' W 076°20'0 0.0
2018-Feb-20 11:30N 36°55' W 076°20'1 1.1
2018-Feb-20 10:52N 36°56' W 076°20'1 2.9
2018-Feb-20 10:30N 36°57' W 076°20'1 2.7
2018-Feb-20 10:00N 36°56' W 076°20'0 0.0
2018-Feb-20 09:21N 36°56' W 076°20'0 0.0
2018-Feb-20 08:57N 36°56' W 076°20'0 0.0
2018-Feb-20 08:30N 36°56' W 076°20'0 0.0
2018-Feb-20 07:58N 36°56' W 076°20'0 0.0
2018-Feb-20 07:28N 36°56' W 076°20'0 0.0
2018-Feb-20 06:57N 36°56' W 076°20'0 0.0
2018-Feb-20 06:27N 36°56' W 076°20'0 0.0
2018-Feb-20 05:57N 36°56' W 076°20'0 0.0
2018-Feb-20 05:26N 36°56' W 076°20'0 0.0
2018-Feb-20 05:00N 36°56' W 076°20'0 0.0
2018-Feb-20 04:30N 36°56' W 076°20'0 0.0
2018-Feb-20 03:59N 36°56' W 076°20'0 0.0
2018-Feb-20 03:29N 36°56' W 076°20'0 0.0
2018-Feb-20 02:58N 36°56' W 076°20'0 0.0
2018-Feb-20 02:28N 36°56' W 076°20'1 2.6
2018-Feb-20 01:57N 36°57' W 076°20'4 7.5
2018-Feb-20 01:25N 36°58' W 076°25'0 0.0
2018-Feb-20 00:59N 36°58' W 076°25'1 2.6
2018-Feb-20 00:29N 36°57' W 076°24'0 0.6
2018-Feb-19 23:58N 36°57' W 076°23'2 2.3
2018-Feb-19 23:17N 36°58' W 076°25'0 0.3
2018-Feb-19 22:55N 36°58' W 076°25'0 0.1
2018-Feb-19 22:30N 36°58' W 076°25'1 1.8
2018-Feb-19 22:00N 36°57' W 076°25'4 6.3
2018-Feb-19 21:27N 36°57' W 076°20'1 1.5
2018-Feb-19 20:59N 36°56' W 076°20'0 0.0
2018-Feb-19 20:22N 36°56' W 076°20'0 0.0
2018-Feb-19 20:01N 36°56' W 076°20'0 0.0
2018-Feb-19 19:23N 36°56' W 076°20'0 0.0
2018-Feb-19 18:58N 36°56' W 076°20'0 0.0
2018-Feb-19 18:29N 36°56' W 076°20'0 0.0
2018-Feb-19 17:58N 36°56' W 076°20'0 0.0
2018-Feb-19 17:28N 36°56' W 076°20'0 0.0
2018-Feb-19 16:54N 36°56' W 076°20'0 0.0
2018-Feb-19 16:29N 36°56' W 076°20'1 2.9
2018-Feb-19 16:01N 36°55' W 076°20'4 8.5
2018-Feb-19 15:31N 36°51' W 076°18'2 3.7
2018-Feb-19 15:00N 36°49' W 076°17'0 0.0
2018-Feb-19 14:30N 36°49' W 076°17'0 0.7
2018-Feb-19 14:01N 36°49' W 076°17'2 4.7
2018-Feb-19 13:30N 36°51' W 076°19'3 5.9
2018-Feb-19 13:00N 36°54' W 076°20'2 2.7
2018-Feb-19 12:22N 36°56' W 076°20'0 0.0
2018-Feb-19 11:56N 36°56' W 076°20'0 0.0
2018-Feb-19 11:26N 36°56' W 076°20'0 0.0
2018-Feb-19 10:51N 36°56' W 076°20'0 0.0
2018-Feb-19 10:30N 36°56' W 076°20'0 0.0
2018-Feb-19 09:59N 36°56' W 076°20'0 0.0
2018-Feb-19 09:28N 36°56' W 076°20'0 0.0
2018-Feb-19 08:52N 36°56' W 076°20'0 0.0
2018-Feb-19 08:25N 36°56' W 076°20'0 0.0
2018-Feb-19 08:00N 36°56' W 076°20'0 0.0
2018-Feb-19 07:25N 36°56' W 076°20'0 0.0
2018-Feb-19 06:58N 36°56' W 076°20'0 0.0
2018-Feb-19 06:16N 36°56' W 076°20'0 0.0
2018-Feb-19 06:00N 36°56' W 076°20'0 0.0
2018-Feb-19 05:27N 36°56' W 076°20'0 0.5
2018-Feb-19 05:00N 36°56' W 076°20'0 0.2
2018-Feb-19 04:30N 36°56' W 076°20'0 0.0
2018-Feb-19 04:00N 36°56' W 076°20'0 0.5
2018-Feb-19 03:28N 36°56' W 076°20'0 0.0
2018-Feb-19 02:58N 36°56' W 076°20'0 0.0
2018-Feb-19 02:25N 36°56' W 076°20'0 0.0
2018-Feb-19 02:00N 36°56' W 076°20'0 0.0
2018-Feb-19 01:29N 36°56' W 076°20'0 0.1
2018-Feb-19 00:59N 36°56' W 076°20'0 0.8
2018-Feb-19 00:28N 36°56' W 076°20'0 0.7
2018-Feb-18 23:57N 36°56' W 076°20'0 0.0
2018-Feb-18 23:26N 36°56' W 076°20'0 0.0
2018-Feb-18 22:58N 36°56' W 076°20'0 0.8
2018-Feb-18 22:26N 36°56' W 076°20'1 1.9
2018-Feb-18 22:00N 36°56' W 076°20'0 0.6
2018-Feb-18 21:19N 36°56' W 076°20'0 0.0
2018-Feb-18 20:59N 36°56' W 076°20'0 0.0
2018-Feb-18 20:27N 36°56' W 076°20'0 0.0
2018-Feb-18 19:58N 36°56' W 076°20'0 0.0
2018-Feb-18 19:27N 36°56' W 076°20'0 0.0
2018-Feb-18 18:59N 36°56' W 076°20'0 0.0
2018-Feb-18 18:27N 36°56' W 076°20'0 0.0
2018-Feb-18 17:46N 36°56' W 076°20'0 0.0
2018-Feb-18 17:25N 36°56' W 076°20'0 0.0
2018-Feb-18 17:00N 36°56' W 076°20'0 0.0
2018-Feb-18 16:26N 36°56' W 076°20'0 0.0
2018-Feb-18 15:55N 36°56' W 076°20'0 0.0
2018-Feb-18 15:28N 36°56' W 076°20'0 0.0
2018-Feb-18 14:56N 36°56' W 076°20'0 0.0
2018-Feb-18 14:29N 36°56' W 076°20'0 0.0
2018-Feb-18 13:57N 36°56' W 076°20'0 0.0
2018-Feb-18 13:30N 36°56' W 076°20'0 0.0
2018-Feb-18 12:57N 36°56' W 076°20'3 5.8
2018-Feb-18 12:27N 36°53' W 076°20'0 1.0
2018-Feb-18 11:58N 36°53' W 076°21'0 0.5
2018-Feb-18 11:27N 36°53' W 076°21'0 0.0
2018-Feb-18 10:58N 36°53' W 076°21'0 0.3
2018-Feb-18 10:30N 36°53' W 076°21'3 4.8
2018-Feb-18 09:59N 36°55' W 076°20'1 1.1
2018-Feb-18 09:23N 36°56' W 076°20'0 0.0
2018-Feb-18 08:57N 36°56' W 076°20'0 0.0
2018-Feb-18 08:28N 36°56' W 076°20'2 3.7
2018-Feb-18 07:56N 36°57' W 076°22'3 0.4
2018-Feb-17 23:52N 36°58' W 076°26'1 1.5
2018-Feb-17 23:28N 36°58' W 076°25'0 0.7
2018-Feb-17 23:00N 36°58' W 076°25'0 0.7
2018-Feb-17 22:28N 36°57' W 076°25'1 0.3
2018-Feb-17 20:23N 36°58' W 076°26'0 0.8
2018-Feb-17 19:55N 36°58' W 076°25'2 3.6
2018-Feb-17 19:29N 36°57' W 076°24'3 6.1
2018-Feb-17 18:58N 36°56' W 076°20'0 0.0
2018-Feb-17 18:28N 36°56' W 076°20'0 0.0
2018-Feb-17 17:57N 36°56' W 076°20'0 0.0
2018-Feb-17 17:26N 36°56' W 076°20'0 0.0
2018-Feb-17 16:56N 36°56' W 076°20'0 0.0
2018-Feb-17 16:31N 36°56' W 076°20'0 0.0
2018-Feb-17 16:00N 36°56' W 076°20'0 0.0
2018-Feb-17 15:30N 36°56' W 076°20'0 0.0
2018-Feb-17 14:58N 36°56' W 076°20'0 0.0
2018-Feb-17 14:28N 36°56' W 076°20'0 0.0
2018-Feb-17 01:13N 36°56' W 076°20'0 0.0
2018-Feb-17 00:57N 36°56' W 076°20'0 0.0
2018-Feb-17 00:26N 36°56' W 076°20'0 0.0
2018-Feb-16 23:55N 36°56' W 076°20'1 2.6
2018-Feb-16 23:30N 36°55' W 076°20'1 1.0
2018-Feb-16 22:58N 36°55' W 076°20'2 4.2
2018-Feb-16 22:30N 36°57' W 076°20'1 2.2
2018-Feb-16 21:59N 36°56' W 076°20'0 0.0
2018-Feb-16 21:29N 36°56' W 076°20'5 3.7
2018-Feb-16 20:03N 36°58' W 076°26'0 0.0
2018-Feb-16 19:38N 36°58' W 076°26'0 0.0
2018-Feb-16 19:20N 36°58' W 076°26'0 0.0
2018-Feb-16 18:40N 36°58' W 076°26'0 0.0
2018-Feb-16 18:25N 36°58' W 076°26'0 0.0
2018-Feb-16 17:50N 36°58' W 076°26'0 0.0
2018-Feb-16 17:25N 36°58' W 076°26'0 0.0
2018-Feb-16 16:57N 36°58' W 076°26'0 0.0
2018-Feb-16 15:03N 36°58' W 076°26'0 0.0
2018-Feb-16 14:56N 36°58' W 076°26'0 0.0
2018-Feb-16 14:27N 36°58' W 076°26'0 0.0
2018-Feb-16 13:16N 36°58' W 076°26'0 0.0
2018-Feb-16 12:56N 36°58' W 076°26'1 0.1
2018-Feb-16 08:49N 36°58' W 076°25'1 2.7
2018-Feb-16 08:30N 36°57' W 076°25'1 2.0
2018-Feb-16 07:59N 36°57' W 076°23'2 2.5
2018-Feb-16 07:14N 36°58' W 076°26'1 0.1
2018-Feb-16 00:20N 36°58' W 076°26'1 0.6
2018-Feb-15 22:56N 36°58' W 076°25'0 0.1
2018-Feb-15 22:30N 36°58' W 076°25'1 0.3
2018-Feb-15 19:38N 36°58' W 076°26'1 4.5
2018-Feb-15 19:23N 36°57' W 076°25'1 0.1
2018-Feb-15 07:53N 36°58' W 076°26'0 0.3
2018-Feb-15 07:19N 36°58' W 076°26'0 0.1
2018-Feb-15 06:59N 36°58' W 076°26'0 0.1
2018-Feb-15 04:10N 36°58' W 076°26'0 0.0
2018-Feb-15 01:44N 36°58' W 076°26'0 0.0
2018-Feb-15 01:14N 36°58' W 076°26'0 0.0
2018-Feb-15 00:54N 36°58' W 076°26'0 0.0
2018-Feb-15 00:27N 36°58' W 076°26'0 0.0
2018-Feb-14 23:59N 36°58' W 076°26'0 0.0
2018-Feb-14 21:42N 36°58' W 076°26'0 0.0
2018-Feb-14 17:08N 36°58' W 076°26'0 0.0
2018-Feb-14 17:00N 36°58' W 076°26'0 0.0
2018-Feb-14 14:11N 36°58' W 076°26'0 0.0
2018-Feb-14 13:49N 36°58' W 076°26'0 0.0
2018-Feb-14 13:27N 36°58' W 076°26'0 0.0
2018-Feb-13 23:11N 36°58' W 076°26'2 2.1
2018-Feb-13 22:12N 36°57' W 076°23'1 3.0
2018-Feb-13 21:56N 36°57' W 076°24'1 2.1
2018-Feb-13 21:28N 36°58' W 076°25'1 1.1
2018-Feb-13 20:59N 36°58' W 076°26'0 0.0
2018-Feb-13 20:06N 36°58' W 076°26'0 0.1
2018-Feb-13 19:53N 36°58' W 076°26'0 0.0
2018-Feb-13 19:16N 36°58' W 076°26'0 0.0
2018-Feb-13 18:50N 36°58' W 076°26'0 0.0
2018-Feb-13 18:28N 36°58' W 076°26'0 0.6
2018-Feb-13 17:58N 36°58' W 076°26'0 0.5
2018-Feb-13 17:26N 36°58' W 076°26'0 0.1
2018-Feb-13 16:55N 36°58' W 076°26'0 0.0
2018-Feb-13 16:19N 36°58' W 076°26'0 0.0
2018-Feb-13 15:52N 36°58' W 076°26'0 0.0
2018-Feb-13 15:20N 36°58' W 076°26'0 0.0
2018-Feb-13 14:58N 36°58' W 076°26'0 0.0
2018-Feb-13 14:26N 36°58' W 076°26'0 0.0
2018-Feb-13 13:48N 36°58' W 076°26'0 0.0
2018-Feb-13 13:26N 36°58' W 076°26'0 0.0
2018-Feb-13 12:55N 36°58' W 076°26'0 0.0
2018-Feb-13 12:06N 36°58' W 076°26'0 0.0
2018-Feb-13 11:48N 36°58' W 076°26'0 0.4
2018-Feb-13 11:19N 36°58' W 076°26'0 0.0
2018-Feb-13 10:58N 36°58' W 076°26'0 0.0
2018-Feb-13 10:24N 36°58' W 076°26'0 0.4
2018-Feb-13 09:53N 36°58' W 076°26'  

Dump ship's entire track history